createdAt,value
2022-09-15T00:01:15.119Z,15.50
2022-09-15T00:03:44.666Z,15.41
2022-09-15T00:06:14.671Z,15.39
2022-09-15T00:08:46.202Z,15.23
2022-09-15T00:11:23.835Z,15.42
2022-09-15T00:13:52.772Z,15.36
2022-09-15T00:16:24.419Z,15.49
2022-09-15T00:18:54.402Z,15.47
2022-09-15T00:21:30.404Z,15.42
2022-09-15T00:23:59.111Z,15.48
2022-09-15T00:26:29.346Z,15.52
2022-09-15T00:28:58.491Z,15.49
2022-09-15T00:31:30.643Z,15.56
2022-09-15T00:34:02.497Z,15.28
2022-09-15T00:36:31.883Z,15.26
2022-09-15T00:38:59.024Z,15.22
2022-09-15T00:41:26.585Z,15.10
2022-09-15T00:44:00.402Z,15.16
2022-09-15T00:46:33.861Z,15.26
2022-09-15T00:49:23.063Z,15.09
2022-09-15T00:52:02.152Z,15.26
2022-09-15T00:54:50.378Z,15.22
2022-09-15T00:57:42.125Z,15.12
2022-09-15T01:00:14.051Z,15.11
2022-09-15T01:02:44.697Z,15.40
2022-09-15T01:05:16.150Z,15.25
2022-09-15T01:07:58.590Z,15.52
2022-09-15T01:10:28.609Z,15.91
2022-09-15T01:13:01.131Z,15.91
2022-09-15T01:15:39.930Z,16.16
2022-09-15T01:18:56.860Z,16.23
2022-09-15T01:21:38.695Z,16.27
2022-09-15T01:24:37.710Z,16.25
2022-09-15T01:27:43.829Z,16.47
2022-09-15T01:30:21.221Z,16.32
2022-09-15T01:33:12.533Z,16.33
2022-09-15T01:36:24.708Z,16.50
2022-09-15T01:38:56.772Z,16.37
2022-09-15T01:42:00.597Z,16.57
2022-09-15T01:44:50.022Z,16.66
2022-09-15T01:47:19.454Z,16.78
2022-09-15T01:50:01.590Z,16.90
2022-09-15T01:52:29.973Z,16.79
2022-09-15T01:55:06.172Z,16.94
2022-09-15T01:57:33.428Z,16.78
2022-09-15T02:00:00.783Z,16.79
2022-09-15T02:02:38.337Z,16.82
2022-09-15T02:05:38.248Z,16.83
2022-09-15T02:08:38.619Z,16.78
2022-09-15T02:11:21.648Z,16.89
2022-09-15T02:14:24.848Z,16.78
2022-09-15T02:16:54.693Z,16.75
2022-09-15T02:19:41.834Z,16.87
2022-09-15T02:22:24.413Z,16.79
2022-09-15T02:25:02.244Z,16.73
2022-09-15T02:27:37.815Z,16.75
2022-09-15T02:30:15.638Z,16.78
2022-09-15T02:32:56.899Z,16.58
2022-09-15T02:35:32.383Z,16.45
2022-09-15T02:38:00.329Z,16.66
2022-09-15T02:40:29.181Z,16.21
2022-09-15T02:43:03.260Z,16.58
2022-09-15T02:45:31.926Z,16.83
2022-09-15T02:48:01.643Z,16.78
2022-09-15T02:50:31.240Z,16.43
2022-09-15T02:52:58.479Z,16.64
2022-09-15T02:55:29.052Z,16.60
2022-09-15T02:57:59.567Z,16.57
2022-09-15T03:00:31.397Z,16.77
2022-09-15T03:02:58.486Z,16.73
2022-09-15T03:05:31.443Z,16.81
2022-09-15T03:07:58.473Z,16.79
2022-09-15T03:10:28.227Z,16.61
2022-09-15T03:12:55.655Z,16.55
2022-09-15T03:15:25.359Z,16.65
2022-09-15T03:17:57.236Z,16.66
2022-09-15T03:20:30.352Z,16.80
2022-09-15T03:22:57.289Z,16.72
2022-09-15T03:25:26.934Z,16.77
2022-09-15T03:27:56.510Z,16.75
2022-09-15T03:30:24.206Z,16.56
2022-09-15T03:32:51.273Z,16.75
2022-09-15T03:35:18.235Z,16.68
2022-09-15T03:37:48.692Z,16.69
2022-09-15T03:40:18.119Z,16.83
2022-09-15T03:42:47.589Z,16.81
2022-09-15T03:45:14.552Z,16.96
2022-09-15T03:47:41.435Z,17.03
2022-09-15T03:50:11.300Z,17.05
2022-09-15T03:52:38.201Z,16.90
2022-09-15T03:55:08.236Z,16.96
2022-09-15T03:57:37.932Z,16.85
2022-09-15T04:00:08.403Z,16.70
2022-09-15T04:02:38.519Z,16.90
2022-09-15T04:05:08.526Z,17.01
2022-09-15T04:07:35.537Z,16.95
2022-09-15T04:10:02.679Z,16.83
2022-09-15T04:12:32.534Z,16.78
2022-09-15T04:15:02.595Z,16.70
2022-09-15T04:17:30.238Z,16.71
2022-09-15T04:19:59.798Z,16.56
2022-09-15T04:22:34.346Z,16.65
2022-09-15T04:25:01.240Z,16.82
2022-09-15T04:27:28.921Z,16.83
2022-09-15T04:29:55.841Z,16.85
2022-09-15T04:32:22.681Z,16.88
2022-09-15T04:34:51.751Z,16.98
2022-09-15T04:37:24.641Z,17.20
2022-09-15T04:39:51.564Z,17.29
2022-09-15T04:42:21.761Z,17.14
2022-09-15T04:44:49.566Z,17.10
2022-09-15T04:47:16.522Z,16.93
2022-09-15T04:49:43.373Z,16.98
2022-09-15T04:52:10.254Z,16.78
2022-09-15T04:54:37.544Z,16.83
2022-09-15T04:57:04.581Z,16.85
2022-09-15T04:59:31.508Z,16.92
2022-09-15T05:01:58.457Z,16.84
2022-09-15T05:04:25.781Z,16.77
2022-09-15T05:06:52.717Z,16.88
2022-09-15T05:09:22.111Z,16.88
2022-09-15T05:11:51.083Z,16.77
2022-09-15T05:14:18.116Z,16.58
2022-09-15T05:16:47.865Z,16.72
2022-09-15T05:19:14.804Z,16.73
2022-09-15T05:21:43.984Z,16.74
2022-09-15T05:24:10.815Z,16.76
2022-09-15T05:26:40.366Z,16.68
2022-09-15T05:29:11.713Z,16.78
2022-09-15T05:31:38.669Z,16.65
2022-09-15T05:34:06.498Z,16.71
2022-09-15T05:36:35.939Z,16.68
2022-09-15T05:39:02.768Z,16.85
2022-09-15T05:41:30.420Z,16.90
2022-09-15T05:43:58.641Z,16.67
2022-09-15T05:46:27.468Z,16.86
2022-09-15T05:48:57.661Z,16.93
2022-09-15T05:51:24.910Z,17.03
2022-09-15T05:53:51.897Z,17.17
2022-09-15T05:56:19.262Z,17.31
2022-09-15T05:58:51.361Z,17.33
2022-09-15T06:01:23.785Z,16.86
2022-09-15T06:03:51.510Z,17.08
2022-09-15T06:06:18.548Z,16.78
2022-09-15T06:08:55.393Z,16.91
2022-09-15T06:11:30.743Z,17.23
2022-09-15T06:14:06.033Z,17.31
2022-09-15T06:16:35.849Z,17.28
2022-09-15T06:19:05.919Z,17.32
2022-09-15T06:21:36.228Z,17.34
2022-09-15T06:24:07.044Z,17.48
2022-09-15T06:26:34.571Z,17.50
2022-09-15T06:29:04.816Z,17.67
2022-09-15T06:31:36.101Z,17.47
2022-09-15T06:34:06.627Z,17.40
2022-09-15T06:36:33.669Z,17.16
2022-09-15T06:39:03.065Z,17.48
2022-09-15T06:41:52.946Z,17.82
2022-09-15T06:44:22.386Z,19.00
2022-09-15T06:46:49.535Z,18.93
2022-09-15T06:49:17.059Z,19.52
2022-09-15T06:51:43.941Z,21.06
2022-09-15T06:54:11.870Z,21.78
2022-09-15T06:56:38.756Z,22.78
2022-09-15T06:59:05.912Z,23.96
2022-09-15T07:01:33.383Z,24.24
2022-09-15T07:04:04.132Z,23.21
2022-09-15T07:06:37.512Z,23.58
2022-09-15T07:09:06.917Z,25.12
2022-09-15T07:11:34.354Z,26.23
2022-09-15T07:14:01.325Z,24.97
2022-09-15T07:16:31.156Z,23.57
2022-09-15T07:19:01.211Z,22.62
2022-09-15T07:21:28.541Z,22.19
2022-09-15T07:24:06.429Z,22.37
2022-09-15T07:26:37.864Z,22.61
2022-09-15T07:29:06.882Z,21.25
2022-09-15T07:31:36.376Z,20.64
2022-09-15T07:34:03.916Z,20.91
2022-09-15T07:36:34.759Z,20.40
2022-09-15T07:39:04.562Z,20.84
2022-09-15T07:41:34.404Z,21.64
2022-09-15T07:44:06.909Z,23.61
2022-09-15T07:46:36.397Z,24.99
2022-09-15T07:49:04.524Z,25.07
2022-09-15T07:51:34.489Z,24.39
2022-09-15T07:54:01.729Z,23.11
2022-09-15T07:56:30.831Z,22.59
2022-09-15T07:59:03.060Z,21.92
2022-09-15T08:01:33.051Z,21.28
2022-09-15T08:04:00.033Z,20.50
2022-09-15T08:06:28.698Z,20.50
2022-09-15T08:09:00.448Z,20.60
2022-09-15T08:11:28.534Z,20.59
2022-09-15T08:13:55.390Z,20.43
2022-09-15T08:16:24.555Z,20.50
2022-09-15T08:18:55.445Z,20.36
2022-09-15T08:21:24.927Z,19.94
2022-09-15T08:23:55.881Z,20.17
2022-09-15T08:26:27.129Z,19.91
2022-09-15T08:28:54.436Z,19.94
2022-09-15T08:31:24.627Z,19.58
2022-09-15T08:33:58.651Z,19.11
2022-09-15T08:36:27.913Z,19.07
2022-09-15T08:38:55.283Z,19.22
2022-09-15T08:41:35.953Z,19.47
2022-09-15T08:44:33.405Z,19.64
2022-09-15T08:47:29.853Z,20.03
2022-09-15T08:50:10.435Z,20.89
2022-09-15T08:52:50.418Z,22.08
2022-09-15T08:55:54.757Z,23.14
2022-09-15T08:58:34.709Z,24.69
2022-09-15T09:01:32.995Z,26.10
2022-09-15T09:04:24.621Z,27.77
2022-09-15T09:07:18.670Z,28.65
2022-09-15T09:10:06.985Z,29.60
2022-09-15T09:12:57.315Z,30.76
2022-09-15T09:15:35.679Z,30.35
2022-09-15T09:18:31.076Z,31.99
2022-09-15T09:21:05.846Z,31.63
2022-09-15T09:23:43.774Z,31.37
2022-09-15T09:26:14.632Z,29.08
2022-09-15T09:29:02.994Z,28.72
2022-09-15T09:31:30.100Z,30.97
2022-09-15T09:34:21.886Z,30.57
2022-09-15T09:37:01.185Z,29.53
2022-09-15T09:39:28.982Z,28.15
2022-09-15T09:41:56.205Z,26.86
2022-09-15T09:44:31.799Z,26.32
2022-09-15T09:47:00.754Z,25.63
2022-09-15T09:49:42.894Z,25.84
2022-09-15T09:52:09.794Z,27.27
2022-09-15T09:54:39.313Z,30.04
2022-09-15T09:57:31.847Z,31.86
2022-09-15T09:59:58.799Z,33.90
2022-09-15T10:02:31.384Z,34.91
2022-09-15T10:05:05.786Z,35.86
2022-09-15T10:07:35.676Z,35.77
2022-09-15T10:10:05.700Z,36.01
2022-09-15T10:12:39.950Z,34.79
2022-09-15T10:15:22.244Z,35.42
2022-09-15T10:17:50.999Z,37.43
2022-09-15T10:20:55.173Z,37.77
2022-09-15T10:23:29.215Z,35.82
2022-09-15T10:26:23.642Z,37.11
2022-09-15T10:29:20.237Z,37.25
2022-09-15T10:31:52.261Z,36.58
2022-09-15T10:34:31.688Z,35.01
2022-09-15T10:37:14.054Z,33.68
2022-09-15T10:40:01.713Z,31.68
2022-09-15T10:42:48.517Z,29.42
2022-09-15T10:45:25.568Z,27.82
2022-09-15T10:48:23.436Z,26.94
2022-09-15T10:50:56.367Z,27.23
2022-09-15T10:54:00.057Z,28.21
2022-09-15T10:56:47.165Z,27.83
2022-09-15T10:59:54.007Z,26.72
2022-09-15T11:02:55.227Z,25.13
2022-09-15T11:05:49.308Z,23.57
2022-09-15T11:08:32.013Z,23.22
2022-09-15T11:11:35.482Z,22.83
2022-09-15T11:14:42.144Z,22.63
2022-09-15T11:17:37.722Z,22.50
2022-09-15T11:21:19.439Z,22.13
2022-09-15T11:24:22.101Z,22.26
2022-09-15T11:27:22.789Z,22.13
2022-09-15T11:29:53.017Z,22.12
2022-09-15T11:32:41.497Z,22.46
2022-09-15T11:35:53.726Z,23.02
2022-09-15T11:39:02.030Z,24.07
2022-09-15T11:41:38.987Z,24.14
2022-09-15T11:44:24.944Z,24.12
2022-09-15T11:47:22.723Z,22.93
2022-09-15T11:49:58.679Z,23.06
2022-09-15T11:53:17.489Z,23.23
2022-09-15T11:56:09.911Z,23.41
2022-09-15T11:58:48.962Z,23.60
2022-09-15T12:01:30.226Z,25.61
2022-09-15T12:04:10.778Z,29.60
2022-09-15T12:06:48.872Z,32.78
2022-09-15T12:09:20.516Z,33.99
2022-09-15T12:11:57.587Z,35.44
2022-09-15T12:14:34.801Z,35.42
2022-09-15T12:17:04.890Z,35.02
2022-09-15T12:20:00.904Z,32.78
2022-09-15T12:23:15.153Z,30.29
2022-09-15T12:26:40.977Z,27.28
2022-09-15T12:29:26.044Z,25.19
2022-09-15T12:32:31.972Z,23.78
2022-09-15T12:35:03.421Z,22.67
2022-09-15T12:37:44.039Z,22.62
2022-09-15T12:40:40.019Z,22.17
2022-09-15T12:43:13.405Z,22.10
2022-09-15T12:45:43.264Z,21.68
2022-09-15T12:48:32.568Z,21.80
2022-09-15T12:51:02.993Z,21.93
2022-09-15T12:53:37.441Z,22.04
2022-09-15T12:56:20.962Z,22.11
2022-09-15T12:58:50.058Z,21.81
2022-09-15T13:01:22.817Z,21.45
2022-09-15T13:03:49.607Z,21.46
2022-09-15T13:06:37.749Z,21.66
2022-09-15T13:09:07.336Z,21.21
2022-09-15T13:11:34.840Z,21.18
2022-09-15T13:14:07.492Z,21.28
2022-09-15T13:16:50.059Z,21.73
2022-09-15T13:19:22.497Z,22.36
2022-09-15T13:22:13.595Z,22.82
2022-09-15T13:25:05.689Z,24.22
2022-09-15T13:27:54.169Z,27.59
2022-09-15T13:30:21.260Z,29.57
2022-09-15T13:39:58.576Z,32.78
2022-09-15T13:43:01.979Z,32.69
2022-09-15T13:46:15.608Z,33.63
2022-09-15T13:49:47.387Z,34.07
2022-09-15T13:52:22.840Z,32.95
2022-09-15T13:55:14.552Z,33.04
2022-09-15T14:00:55.169Z,32.01
2022-09-15T14:03:37.322Z,31.26
2022-09-15T14:06:33.882Z,30.46
2022-09-15T14:09:15.182Z,29.51
2022-09-15T14:11:46.389Z,28.24
2022-09-15T14:14:33.057Z,27.25
2022-09-15T14:17:00.354Z,25.97
2022-09-15T14:19:36.996Z,24.48
2022-09-15T14:22:29.272Z,23.48
2022-09-15T14:25:00.967Z,23.22
2022-09-15T14:27:34.477Z,22.45
2022-09-15T14:30:08.761Z,22.36
2022-09-15T14:32:46.816Z,22.30
2022-09-15T14:35:20.190Z,22.51
2022-09-15T14:37:58.532Z,22.42
2022-09-15T14:40:36.261Z,22.60
2022-09-15T14:43:26.530Z,22.94
2022-09-15T14:46:00.419Z,23.78
2022-09-15T14:48:34.322Z,24.33
2022-09-15T14:51:20.651Z,25.78
2022-09-15T14:53:52.366Z,26.97
2022-09-15T14:56:27.414Z,28.33
2022-09-15T14:59:07.886Z,28.97
2022-09-15T15:02:09.073Z,29.46
2022-09-15T15:04:39.419Z,29.08
2022-09-15T15:07:22.786Z,27.92
2022-09-15T15:10:07.404Z,27.16
2022-09-15T15:16:37.644Z,26.01
2022-09-15T15:19:33.527Z,26.45
2022-09-15T15:22:25.071Z,26.84
2022-09-15T15:24:55.904Z,25.62
2022-09-15T15:27:41.497Z,24.75
2022-09-15T15:30:32.112Z,24.03
2022-09-15T15:33:24.769Z,23.24
2022-09-15T15:36:24.401Z,23.38
2022-09-15T15:39:05.989Z,23.62
2022-09-15T15:41:39.182Z,23.11
2022-09-15T15:44:13.815Z,22.67
2022-09-15T15:47:20.341Z,22.63
2022-09-15T15:50:21.263Z,22.66
2022-09-15T15:52:53.165Z,22.57
2022-09-15T15:55:31.048Z,21.86
2022-09-15T15:58:12.815Z,21.71
2022-09-15T16:01:08.813Z,21.98
2022-09-15T16:03:43.911Z,21.93
2022-09-15T16:06:23.137Z,22.04
2022-09-15T16:08:59.666Z,22.12
2022-09-15T16:11:27.121Z,21.53
2022-09-15T16:14:00.441Z,20.68
2022-09-15T16:16:30.730Z,20.35
2022-09-15T16:19:00.687Z,20.16
2022-09-15T16:21:43.251Z,20.06
2022-09-15T16:24:20.411Z,20.24
2022-09-15T16:26:53.960Z,20.17
2022-09-15T16:29:49.302Z,19.81
2022-09-15T16:32:33.972Z,19.93
2022-09-15T16:35:01.918Z,19.74
2022-09-15T16:37:38.275Z,19.75
2022-09-15T16:40:20.135Z,19.81
2022-09-15T16:42:53.120Z,19.55
2022-09-15T16:45:41.573Z,19.42
2022-09-15T16:48:12.773Z,19.33
2022-09-15T16:51:09.561Z,19.07
2022-09-15T16:53:48.318Z,19.18
2022-09-15T16:56:16.402Z,19.23
2022-09-15T16:58:44.534Z,19.14
2022-09-15T17:01:25.804Z,19.18
2022-09-15T17:04:02.321Z,19.09
2022-09-15T17:06:36.089Z,18.91
2022-09-15T17:09:10.365Z,18.86
2022-09-15T17:11:40.050Z,18.78
2022-09-15T17:14:18.690Z,18.86
2022-09-15T17:16:52.951Z,18.83
2022-09-15T17:19:20.238Z,18.64
2022-09-15T17:21:52.304Z,18.59
2022-09-15T17:24:19.854Z,18.68
2022-09-15T17:26:47.635Z,18.56
2022-09-15T17:29:20.376Z,18.54
2022-09-15T17:31:55.514Z,18.68
2022-09-15T17:34:26.076Z,18.51
2022-09-15T17:37:06.858Z,18.74
2022-09-15T17:39:40.078Z,18.53
2022-09-15T17:42:21.370Z,18.44
2022-09-15T17:44:48.619Z,18.27
2022-09-15T17:47:20.845Z,18.26
2022-09-15T17:49:50.720Z,18.21
2022-09-15T17:52:18.759Z,18.15
2022-09-15T17:57:19.772Z,18.06
2022-09-15T17:59:46.650Z,18.04
2022-09-15T18:02:19.692Z,17.90
2022-09-15T18:04:46.761Z,17.99
2022-09-15T18:07:14.123Z,18.05
2022-09-15T18:09:44.235Z,18.11
2022-09-15T18:12:16.654Z,18.27
2022-09-15T18:14:43.672Z,18.28
2022-09-15T18:17:12.067Z,18.23
2022-09-15T18:19:40.286Z,18.28
2022-09-15T18:22:07.215Z,18.14
2022-09-15T18:24:34.614Z,18.08
2022-09-15T18:27:04.207Z,18.01
2022-09-15T18:29:31.344Z,18.05
2022-09-15T18:32:03.130Z,18.18
2022-09-15T18:34:30.241Z,18.24
2022-09-15T18:36:58.871Z,18.22
2022-09-15T18:39:29.443Z,18.29
2022-09-15T18:41:56.441Z,18.33
2022-09-15T18:44:23.652Z,18.28
2022-09-15T18:46:50.617Z,18.32
2022-09-15T18:49:17.635Z,18.28
2022-09-15T18:51:52.205Z,18.19
2022-09-15T18:54:19.642Z,17.88
2022-09-15T18:56:48.973Z,17.88
2022-09-15T18:59:17.768Z,17.92
2022-09-15T19:01:45.235Z,17.85
2022-09-15T19:04:12.164Z,18.06
2022-09-15T19:06:39.178Z,17.75
2022-09-15T19:09:08.880Z,17.55
2022-09-15T19:11:35.938Z,17.44
2022-09-15T19:14:05.139Z,17.35
2022-09-15T19:16:53.930Z,17.28
2022-09-15T19:19:19.956Z,16.98
2022-09-15T19:21:49.992Z,17.05
2022-09-15T19:24:17.441Z,17.15
2022-09-15T19:26:46.744Z,17.10
2022-09-15T19:29:15.530Z,17.19
2022-09-15T19:31:42.533Z,17.10
2022-09-15T19:34:09.848Z,17.13
2022-09-15T19:36:39.294Z,17.23
2022-09-15T19:39:10.934Z,17.10
2022-09-15T19:41:42.398Z,17.15
2022-09-15T19:44:10.750Z,17.11
2022-09-15T19:46:40.398Z,16.85
2022-09-15T19:49:07.919Z,16.92
2022-09-15T19:51:38.866Z,16.78
2022-09-15T19:54:08.590Z,16.87
2022-09-15T19:56:38.677Z,16.91
2022-09-15T19:59:11.091Z,16.90
2022-09-15T20:01:37.957Z,16.77
2022-09-15T20:04:05.652Z,16.60
2022-09-15T20:06:33.049Z,16.52
2022-09-15T20:09:00.269Z,16.57
2022-09-15T20:11:28.742Z,16.45
2022-09-15T20:13:56.286Z,16.46
2022-09-15T20:16:24.542Z,16.42
2022-09-15T20:18:53.983Z,16.32
2022-09-15T20:21:50.844Z,16.20
2022-09-15T20:24:22.687Z,16.15
2022-09-15T20:26:52.418Z,16.27
2022-09-15T20:29:20.368Z,16.27
2022-09-15T20:31:48.017Z,16.09
2022-09-15T20:34:18.754Z,16.07
2022-09-15T20:36:45.874Z,16.11
2022-09-15T20:39:19.411Z,16.30
2022-09-15T20:41:49.099Z,16.25
2022-09-15T20:44:16.358Z,16.21
2022-09-15T20:46:43.642Z,16.29
2022-09-15T20:49:11.148Z,16.11
2022-09-15T20:51:38.263Z,16.17
2022-09-15T20:54:05.684Z,16.03
2022-09-15T20:56:35.285Z,16.12
2022-09-15T20:59:06.546Z,15.87
2022-09-15T21:01:36.727Z,15.83
2022-09-15T21:04:08.338Z,15.76
2022-09-15T21:06:36.041Z,15.74
2022-09-15T21:09:06.455Z,15.79
2022-09-15T21:11:33.724Z,15.81
2022-09-15T21:14:01.911Z,15.46
2022-09-15T21:16:30.090Z,15.22
2022-09-15T21:18:58.731Z,15.44
2022-09-15T21:21:32.292Z,15.30
2022-09-15T21:24:04.754Z,15.31
2022-09-15T21:26:59.155Z,15.14
2022-09-15T21:29:27.637Z,15.33
2022-09-15T21:31:58.076Z,15.31
2022-09-15T21:34:25.845Z,15.41
2022-09-15T21:36:53.666Z,15.28
2022-09-15T21:39:23.894Z,15.34
2022-09-15T21:41:50.838Z,15.31
2022-09-15T21:44:17.818Z,15.23
2022-09-15T21:46:46.895Z,15.11
2022-09-15T21:49:18.207Z,15.15
2022-09-15T21:51:45.321Z,15.14
2022-09-15T21:54:15.187Z,15.15
2022-09-15T21:56:45.162Z,15.19
2022-09-15T21:59:12.201Z,15.25
2022-09-15T22:01:40.221Z,15.30
2022-09-15T22:04:09.422Z,15.25
2022-09-15T22:06:42.582Z,15.21
2022-09-15T22:09:21.615Z,15.32
2022-09-15T22:11:49.165Z,15.33
2022-09-15T22:14:18.908Z,15.24
2022-09-15T22:16:46.068Z,15.25
2022-09-15T22:19:18.210Z,15.15
2022-09-15T22:21:45.589Z,15.09
2022-09-15T22:24:16.114Z,15.02
2022-09-15T22:26:44.061Z,15.05
2022-09-15T22:29:11.673Z,15.16
2022-09-15T22:31:39.221Z,15.12
2022-09-15T22:34:06.275Z,15.11
2022-09-15T22:36:34.199Z,14.93
2022-09-15T22:39:05.861Z,15.05
2022-09-15T22:41:36.996Z,15.15
2022-09-15T22:44:05.667Z,15.04
2022-09-15T22:46:37.542Z,15.11
2022-09-15T22:49:09.438Z,14.96
2022-09-15T22:51:38.615Z,14.98
2022-09-15T22:54:05.843Z,15.12
2022-09-15T22:56:35.963Z,15.05
2022-09-15T22:59:03.189Z,15.12
2022-09-15T23:01:36.035Z,15.13
2022-09-15T23:04:03.808Z,15.19
2022-09-15T23:06:35.148Z,15.04
2022-09-15T23:09:12.743Z,15.11
2022-09-15T23:11:40.630Z,14.99
2022-09-15T23:14:18.854Z,15.04
2022-09-15T23:16:49.182Z,15.15
2022-09-15T23:19:16.210Z,14.96
2022-09-15T23:21:44.530Z,14.85
2022-09-15T23:24:12.478Z,14.91
2022-09-15T23:26:39.986Z,14.91
2022-09-15T23:29:11.341Z,14.90
2022-09-15T23:31:38.470Z,14.99
2022-09-15T23:34:05.506Z,14.94
2022-09-15T23:36:36.933Z,15.02
2022-09-15T23:39:04.137Z,15.02
2022-09-15T23:41:33.742Z,14.79
2022-09-15T23:44:00.778Z,14.59
2022-09-15T23:46:30.625Z,14.72
2022-09-15T23:49:00.325Z,14.68
2022-09-15T23:51:27.566Z,14.81
2022-09-15T23:53:56.589Z,14.80
2022-09-15T23:56:26.277Z,14.54
2022-09-15T23:58:53.107Z,14.56
